Latest Weather Observations for Hopetoun North

IDW60801

Issued at 2:05 pm WST Sunday 23 November 2014 (issued every 30 minutes, with the page automatically refreshed every 10 minutes)

About weather observations | Map of weather stations | Latest weather observations for WA | Other Formats
Station Details ID: 009961 Name: HOPETOUN NORTH Lat: -33.93 Lon: 120.13 Height: 26.0 m
Data from the previous 72 hours. | See also: Recent months at Hopetoun North
Date/Time
WST
Temp
°C
App
Temp
°C
Dew
Point
Rel
Hum
%
Delta-T
°C
Wind Press
QNH
hPa
Press
MSL
hPa
Rain
since 9 am
mm
Dir
 
Spd
km/h
Gust
km/h
Spd
kts
Gust
kts
23/02:00pm 19.1 11.5 9.0 52 5.3 SSW 39 54 21 29 1014.9 1014.9 0.2
23/01:30pm 19.2 12.0 9.1 52 5.3 SSW 37 52 20 28 1014.8 1014.8 0.2
23/01:00pm 18.3 11.4 10.4 60 4.2 SSW 37 50 20 27 1014.8 1014.8 0.2
23/12:30pm 19.8 13.9 11.3 58 4.7 SSW 33 43 18 23 1014.7 1014.7 0.2
23/12:00pm 19.3 12.9 10.6 57 4.7 SW 35 44 19 24 1014.7 1014.7 0.2
23/11:30am 19.1 13.3 10.9 59 4.5 SW 32 46 17 25 1014.6 1014.6 0.2
23/11:00am 18.9 14.4 10.2 57 4.7 SSW 24 33 13 18 1014.7 1014.7 0.2
23/10:30am 19.4 14.9 10.1 55 5.0 SW 24 32 13 17 1014.8 1014.8 0.2
23/10:00am 18.3 13.3 9.4 56 4.7 WSW 26 35 14 19 1014.5 1014.5 0.2
23/09:30am 18.4 14.0 10.5 60 4.2 SW 24 33 13 18 1014.5 1014.5 0.2
23/09:00am 17.9 13.0 9.8 59 4.3 WSW 26 37 14 20 1014.5 1014.5 0.0
23/08:30am 18.2 12.1 9.8 58 4.4 WSW 32 43 17 23 1014.4 1014.4 0.0
23/08:00am 17.9 13.3 9.5 58 4.4 WSW 24 37 13 20 1014.2 1014.2 0.0
23/07:30am 17.3 12.8 10.0 62 3.9 W 24 35 13 19 1013.9 1013.9 0.0
23/07:00am 16.6 12.4 9.8 64 3.6 W 22 32 12 17 1013.7 1013.7 0.0
23/06:30am 15.6 11.7 9.3 66 3.3 W 20 28 11 15 1013.5 1013.5 0.0
23/06:00am 15.1 11.8 9.5 69 2.9 WNW 17 26 9 14 1013.0 1013.0 0.0
23/05:30am 14.2 11.1 9.0 71 2.6 WNW 15 24 8 13 1012.5 1012.5 0.0
23/05:00am 13.5 10.8 8.8 73 2.4 WNW 13 22 7 12 1012.5 1012.5 0.0
23/04:30am 13.8 10.3 8.8 72 2.5 W 17 22 9 12 1012.3 1012.3 0.0
23/04:00am 14.2 10.4 9.0 71 2.6 W 19 26 10 14 1012.0 1012.0 0.0
23/03:30am 14.8 10.8 9.2 69 2.9 W 20 32 11 17 1011.6 1011.6 0.0
23/03:00am 14.9 12.9 11.5 80 1.8 WNW 13 20 7 11 1011.5 1011.5 0.0
23/02:30am 15.0 13.0 11.6 80 1.8 W 13 20 7 11 1011.4 1011.4 0.0
23/02:00am 15.1 13.2 11.7 80 1.8 W 13 20 7 11 1011.3 1011.3 0.0
23/01:30am 15.5 13.6 11.7 78 2.1 W 13 20 7 11 1011.3 1011.3 0.0
23/01:00am 15.6 12.7 12.4 81 1.8 WSW 19 28 10 15 1011.4 1011.4 0.0
23/12:30am 15.4 12.9 13.4 88 1.1 WSW 19 24 10 13 1011.5 1011.5 0.0
23/12:00am 16.0 14.0 14.0 88 1.1 SW 17 24 9 13 1011.6 1011.6 0.0
 
Date/Time
WST
Temp
°C
App
Temp
°C
Dew
Point
Rel
Hum
%
Delta-T
°C
Wind Press
QNH
hPa
Press
MSL
hPa
Rain
since 9 am
mm
Dir
 
Spd
km/h
Gust
km/h
Spd
kts
Gust
kts
22/11:30pm 16.8 14.6 12.1 74 2.6 SW 15 19 8 10 1011.7 1011.7 0.0
22/11:00pm 16.8 14.2 12.1 74 2.6 SSW 17 24 9 13 1011.9 1011.9 0.0
22/10:30pm 16.8 14.9 11.7 72 2.8 SSW 13 19 7 10 1012.1 1012.1 0.0
22/10:00pm 16.9 13.8 11.6 71 2.9 SSW 19 26 10 14 1012.2 1012.2 0.0
22/09:30pm 16.8 14.5 11.7 72 2.8 SSW 15 22 8 12 1012.2 1012.2 0.0
22/09:00pm 16.6 15.4 11.5 72 2.8 S 9 13 5 7 1012.0 1012.0 0.0
22/08:30pm 16.7 15.5 11.6 72 2.8 S 9 13 5 7 1012.0 1012.0 0.0
22/08:00pm 16.3 14.6 11.2 72 2.7 SSW 11 17 6 9 1011.9 1011.9 0.0
22/07:30pm 16.8 14.7 11.3 70 3.0 S 13 19 7 10 1011.8 1011.8 0.0
22/07:00pm 16.6 14.2 11.3 71 2.9 S 15 20 8 11 1011.6 1011.6 0.0
22/06:30pm 16.9 14.9 11.4 70 3.0 S 13 19 7 10 1011.4 1011.4 0.0
22/06:00pm 17.7 15.2 12.2 70 3.0 S 17 22 9 12 1011.0 1011.0 0.0
22/05:30pm 18.3 15.5 12.5 69 3.2 S 19 24 10 13 1010.7 1010.7 0.0
22/05:00pm 18.9 16.1 13.1 69 3.3 S 20 28 11 15 1010.5 1010.5 0.0
22/04:30pm 18.6 15.1 12.1 66 3.6 SSW 22 30 12 16 1010.5 1010.5 0.0
22/04:00pm 19.1 16.3 12.6 66 3.6 S 19 26 10 14 1010.6 1010.6 0.0
22/03:30pm 19.1 16.4 13.5 70 3.2 S 20 28 11 15 1010.5 1010.5 0.0
22/03:00pm 19.1 15.9 13.1 68 3.4 S 22 32 12 17 1010.7 1010.7 0.0
22/02:30pm 19.1 16.2 12.8 67 3.5 S 20 30 11 16 1010.7 1010.7 0.0
22/02:00pm 19.4 16.4 12.4 64 3.9 S 20 28 11 15 1010.8 1010.8 0.0
22/01:30pm 19.2 15.5 12.7 66 3.7 S 24 33 13 18 1010.9 1010.9 0.0
22/01:00pm 19.4 15.7 11.4 60 4.4 S 22 30 12 16 1010.8 1010.8 0.0
22/12:30pm 20.3 16.2 12.8 62 4.2 S 26 33 14 18 1010.9 1010.9 0.0
22/12:00pm 20.8 17.6 12.0 57 4.9 S 20 26 11 14 1011.0 1011.0 0.0
22/11:30am 20.6 17.2 10.4 52 5.5 SSW 19 26 10 14 1011.3 1011.3 0.0
22/11:00am 19.9 16.9 10.6 55 5.1 SSW 17 22 9 12 1011.6 1011.6 0.0
22/10:30am 21.3 18.4 12.2 56 5.1 SSW 19 26 10 14 1011.8 1011.8 0.0
22/10:00am 20.8 17.4 11.4 55 5.2 SW 20 26 11 14 1011.9 1011.9 0.0
22/09:30am 19.5 16.1 10.5 56 4.9 SW 19 24 10 13 1011.9 1011.9 0.0
22/09:00am 19.8 16.2 10.0 53 5.3 SW 19 26 10 14 1011.9 1011.9 0.2
22/08:30am 18.3 14.4 8.8 54 4.9 WSW 19 30 10 16 1012.0 1012.0 0.0
22/08:00am 18.1 15.0 10.2 60 4.2 W 17 24 9 13 1012.0 1012.0 0.0
22/07:30am 17.4 13.8 10.5 64 3.7 W 20 28 11 15 1012.0 1012.0 0.0
22/07:00am 17.0 15.0 11.5 70 3.0 W 13 20 7 11 1011.8 1011.8 0.0
22/06:30am 16.0 14.0 11.4 74 2.5 WNW 13 20 7 11 1011.4 1011.4 0.0
22/06:00am 15.9 13.5 11.5 75 2.4 W 15 24 8 13 1011.1 1011.1 0.0
22/05:30am 15.2 13.3 11.8 80 1.8 W 13 22 7 12 1011.0 1011.0 0.0
22/05:00am 14.5 13.5 12.4 87 1.1 W 9 13 5 7 1010.6 1010.6 0.0
22/04:30am 14.6 13.2 12.1 85 1.4 WNW 11 15 6 8 1010.3 1010.3 0.0
22/04:00am 14.9 13.8 11.9 82 1.6 WNW 9 13 5 7 1009.9 1009.9 0.0
22/03:30am 15.9 12.9 11.9 77 2.2 WSW 19 32 10 17 1009.8 1009.8 0.0
22/03:00am 16.0 12.1 12.0 77 2.2 WSW 24 33 13 18 1009.6 1009.6 0.0
22/02:30am 16.1 12.7 12.5 79 2.0 SW 22 33 12 18 1009.6 1009.6 0.0
22/02:00am 16.2 13.2 12.4 78 2.1 SW 20 30 11 16 1009.7 1009.7 0.0
22/01:30am 16.3 13.5 12.5 78 2.1 WSW 19 30 10 16 1009.7 1009.7 0.0
22/01:00am 16.4 12.1 12.2 76 2.3 SW 26 35 14 19 1009.7 1009.7 0.0
22/12:30am 16.6 13.7 12.9 79 2.1 SW 20 28 11 15 1009.9 1009.9 0.0
22/12:00am 16.6 14.5 13.5 82 1.7 WSW 17 26 9 14 1010.0 1010.0 0.0
 
Date/Time
WST
Temp
°C
App
Temp
°C
Dew
Point
Rel
Hum
%
Delta-T
°C
Wind Press
QNH
hPa
Press
MSL
hPa
Rain
since 9 am
mm
Dir
 
Spd
km/h
Gust
km/h
Spd
kts
Gust
kts
21/11:30pm 16.3 15.6 14.3 88 1.1 SW 11 17 6 9 1010.3 1010.3 0.0
21/11:00pm 15.8 14.5 14.7 93 0.6 SW 15 22 8 12 1010.4 1010.4 0.0
21/10:30pm 16.4 14.1 14.2 87 1.3 SSW 19 26 10 14 1010.5 1010.5 0.0
21/10:00pm 16.8 14.9 14.1 84 1.5 SSW 17 24 9 13 1010.5 1010.5 0.0
21/09:30pm 17.1 14.8 14.2 83 1.7 SSW 19 24 10 13 1010.4 1010.4 0.0
21/09:00pm 17.6 16.3 13.7 78 2.2 SSW 13 19 7 10 1010.3 1010.3 0.0
21/08:30pm 17.6 15.9 13.5 77 2.3 SSW 15 22 8 12 1010.0 1010.0 0.0
21/08:00pm 17.6 15.5 13.7 78 2.2 S 17 24 9 13 1009.7 1009.7 0.0
21/07:30pm 17.6 15.4 13.3 76 2.4 SSW 17 22 9 12 1009.7 1009.7 0.0
21/07:00pm 17.5 15.1 13.8 79 2.1 SSW 19 26 10 14 1009.5 1009.5 0.0
21/06:30pm 17.6 15.1 14.1 80 2.0 SSW 20 28 11 15 1009.3 1009.3 0.0
21/06:00pm 18.0 15.8 14.3 79 2.1 S 19 26 10 14 1008.8 1008.8 0.0
21/05:30pm 18.4 15.8 13.7 74 2.7 S 20 26 11 14 1008.4 1008.4 0.0
21/05:00pm 19.3 16.7 13.9 71 3.1 S 20 28 11 15 1008.0 1008.0 0.0
21/04:30pm 19.3 16.9 13.9 71 3.1 S 19 26 10 14 1007.8 1007.8 0.0
21/04:00pm 19.6 17.2 14.4 72 3.0 S 20 28 11 15 1007.6 1007.6 0.0
21/03:30pm 20.0 17.6 13.7 67 3.6 S 19 26 10 14 1007.5 1007.5 0.0
21/03:00pm 20.6 18.2 14.3 67 3.7 S 20 30 11 16 1007.3 1007.3 0.0
21/02:30pm 20.5 17.3 14.2 67 3.7 S 24 32 13 17 1007.3 1007.3 0.0
21/02:00pm 20.5 17.3 15.3 72 3.1 S 26 37 14 20 1007.5 1007.5 0.0
21/01:30pm 20.7 18.9 15.5 72 3.1 S 19 30 10 16 1007.3 1007.3 0.0
21/01:00pm 21.8 20.0 15.4 67 3.8 SSW 19 26 10 14 1007.4 1007.4 0.0
21/12:30pm 20.6 18.6 15.6 73 3.0 SSW 20 28 11 15 1007.8 1007.8 0.0
21/12:00pm 20.4 18.2 15.0 71 3.2 SW 20 26 11 14 1008.2 1008.2 0.0
21/11:30am 20.1 16.9 15.3 74 2.8 SW 26 35 14 19 1008.5 1008.5 0.0
21/11:00am 18.9 15.4 14.6 76 2.5 SW 26 33 14 18 1008.9 1008.9 0.0
21/10:30am 20.1 17.1 14.9 72 3.1 SW 24 33 13 18 1008.7 1008.7 0.0
21/10:00am 17.8 15.1 15.6 87 1.3 SW 24 35 13 19 1008.9 1008.9 0.0
21/09:30am 20.4 19.6 16.0 76 2.6 SSW 15 22 8 12 1008.7 1008.7 0.0
21/09:00am 19.8 18.4 14.4 71 3.1 SW 15 20 8 11 1008.8 1008.8 0.0
21/08:30am 19.1 17.5 13.9 72 3.0 WSW 15 19 8 10 1008.8 1008.8 0.0
21/08:00am 19.6 18.0 13.8 69 3.3 W 15 24 8 13 1008.8 1008.8 0.0
21/07:30am 18.9 16.3 13.3 70 3.2 W 19 24 10 13 1008.7 1008.7 0.0
21/07:00am 18.0 15.7 13.1 73 2.8 WNW 17 30 9 16 1008.5 1008.5 0.0
21/06:30am 17.5 15.5 12.8 74 2.6 WNW 15 30 8 16 1008.3 1008.3 0.0
21/06:00am 16.9 14.4 12.2 74 2.6 WNW 17 24 9 13 1008.1 1008.1 0.0
21/05:30am 16.6 14.8 12.0 74 2.5 WNW 13 19 7 10 1008.0 1008.0 0.0
21/05:00am 16.6 13.9 11.7 73 2.7 WNW 17 28 9 15 1007.8 1007.8 0.0
21/04:30am 16.3 13.8 11.2 72 2.7 WNW 15 24 8 13 1007.6 1007.6 0.0
21/04:00am 16.1 14.4 11.3 73 2.6 WNW 11 19 6 10 1007.4 1007.4 0.0
21/03:30am 15.9 13.4 11.1 73 2.6 W 15 24 8 13 1007.3 1007.3 0.0
21/03:00am 16.5 14.0 11.0 70 3.0 WNW 15 26 8 14 1007.3 1007.3 0.0
21/02:30am 16.5 13.5 10.6 68 3.1 WNW 17 22 9 12 1007.2 1007.2 0.0
21/02:00am 17.0 13.3 10.1 64 3.7 WNW 20 30 11 16 1007.2 1007.2 0.0
21/01:30am 17.4 13.7 10.3 63 3.8 W 20 33 11 18 1007.4 1007.4 0.0
21/01:00am 17.1 14.4 10.2 64 3.7 WNW 15 28 8 15 1007.5 1007.5 0.0
21/12:30am 17.5 14.4 10.4 63 3.8 WNW 17 33 9 18 1007.7 1007.7 0.0
21/12:00am 16.4 15.4 12.4 77 2.2 NW 9 17 5 9 1008.2 1008.2 0.0
 
Date/Time
WST
Temp
°C
App
Temp
°C
Dew
Point
Rel
Hum
%
Delta-T
°C
Wind Press
QNH
hPa
Press
MSL
hPa
Rain
since 9 am
mm
Dir
 
Spd
km/h
Gust
km/h
Spd
kts
Gust
kts
20/11:30pm 15.5 15.8 14.9 96 0.3 N 7 9 4 5 1008.6 1008.6 0.0
20/11:00pm 15.7 15.8 15.5 99 0.1 N 9 11 5 6 1008.9 1008.9 0.0
20/10:30pm 15.6 15.9 15.1 97 0.3 N 7 9 4 5 1008.9 1008.9 0.0
20/10:00pm 15.6 15.8 14.8 95 0.5 N 7 7 4 4 1009.1 1009.1 0.0
20/09:30pm 16.5 18.0 14.7 89 1.0 CALM 0 2 0 1 1009.1 1009.1 0.0
20/09:00pm 16.6 17.4 14.8 89 1.0 NE 4 6 2 3 1009.0 1009.0 0.0
20/08:30pm 17.5 18.0 15.0 85 1.5 ESE 6 7 3 4 1008.7 1008.7 0.0
20/08:00pm 17.6 18.1 15.0 85 1.5 SSE 6 9 3 5 1008.4 1008.4 0.0
20/07:30pm 18.1 17.8 15.4 84 1.6 S 11 17 6 9 1008.2 1008.2 0.0
20/07:00pm 18.3 17.0 15.9 86 1.4 S 17 22 9 12 1007.9 1007.9 0.0
20/06:30pm 18.8 17.4 16.6 87 1.3 S 19 26 10 14 1007.6 1007.6 0.0
20/06:00pm 19.4 18.4 17.5 89 1.2 S 19 28 10 15 1007.1 1007.1 0.0
20/05:30pm 22.3 23.1 15.9 67 3.9 SSE 6 11 3 6 1006.5 1006.5 0.0
20/05:00pm 22.1 22.5 16.4 70 3.5 SSE 9 13 5 7 1006.3 1006.3 0.0
20/04:30pm 22.7 21.5 15.0 61 4.6 S 15 20 8 11 1006.4 1006.4 0.0
20/04:00pm 22.2 20.3 15.3 65 4.1 S 19 26 10 14 1006.6 1006.6 0.0
20/03:30pm 23.2 19.8 14.7 58 5.0 SSW 26 41 14 22 1006.4 1006.4 0.0
20/03:00pm 27.4 21.4 8.8 31 10.2 W 30 35 16 19 1006.6 1006.6 0.0
20/02:30pm 28.5 23.7 8.7 29 10.9 WNW 24 41 13 22 1007.1 1007.1 0.0
20/02:16pm 27.5 21.8 8.4 30 10.4 W 28 46 15 25 1007.4 1007.4 0.0

Other Formats:

Comma delimited format used in spreadsheet applications
http://www.bom.gov.au/fwo/IDW60801/IDW60801.95635.axf

JavaScript Object Notation format (JSON) in row-major order
http://www.bom.gov.au/fwo/IDW60801/IDW60801.95635.json